Time;durP1;ratioP1;P1;durP2;ratioP2;P2;SDS_P1;SDS_P2;PMS_P1;PMS_P2;Temp;Humidity;BMP_temperature;BMP_pressure;BME280_temperature;BME280_humidity;BME280_pressure;Samples;Min_cycle;Max_cycle;Signal;HPM_P1;HPM_P2
2022/12/02 00:02:43;;;;;;;27.17;14.87;;;;;;;;;;6246912;28;20017;-75
2022/12/02 00:05:43;;;;;;;27.13;16.13;;;;;;;;;;6237142;28;20555;-75
2022/12/02 00:08:43;;;;;;;25.40;14.90;;;;;;;;;;6244198;28;20488;-75
2022/12/02 00:11:44;;;;;;;30.70;15.97;;;;;;;;;;6240540;28;20053;-75
2022/12/02 00:14:44;;;;;;;29.83;15.87;;;;;;;;;;6243369;28;20014;-75
2022/12/02 00:17:44;;;;;;;27.07;15.03;;;;;;;;;;6240919;28;20337;-74
2022/12/02 00:20:45;;;;;;;28.15;16.33;;;;;;;;;;6241372;28;20441;-75
2022/12/02 00:23:45;;;;;;;27.77;15.50;;;;;;;;;;6238854;28;20013;-75
2022/12/02 00:26:45;;;;;;;26.00;14.23;;;;;;;;;;6239068;28;20041;-75
2022/12/02 00:29:46;;;;;;;28.50;14.40;;;;;;;;;;6246160;28;20129;-75
2022/12/02 00:32:46;;;;;;;30.27;15.40;;;;;;;;;;6250930;28;20025;-75
2022/12/02 00:35:46;;;;;;;30.33;16.13;;;;;;;;;;6239513;28;20019;-75
2022/12/02 00:38:46;;;;;;;28.13;15.88;;;;;;;;;;6241500;28;20020;-74
2022/12/02 00:41:47;;;;;;;28.70;16.07;;;;;;;;;;6239785;28;20057;-75
2022/12/02 00:48:06;;;;;;;29.20;15.60;;;;;;;;;;6241154;28;20405;-75
2022/12/02 00:51:06;;;;;;;30.55;16.15;;;;;;;;;;6239434;28;20028;-75
2022/12/02 00:54:06;;;;;;;29.38;13.32;;;;;;;;;;6238478;28;20061;-74
2022/12/02 00:57:07;;;;;;;25.13;12.77;;;;;;;;;;6237991;28;20416;-74
2022/12/02 01:00:08;;;;;;;24.70;11.87;;;;;;;;;;6238278;28;20014;-74
2022/12/02 01:03:09;;;;;;;27.85;12.38;;;;;;;;;;6239047;28;20010;-74
2022/12/02 01:06:09;;;;;;;22.03;11.13;;;;;;;;;;6230587;28;20423;-74
2022/12/02 01:09:09;;;;;;;25.83;11.93;;;;;;;;;;6239593;28;20541;-76
2022/12/02 01:12:09;;;;;;;20.43;11.83;;;;;;;;;;6236362;28;20366;-74
2022/12/02 01:15:10;;;;;;;23.60;10.63;;;;;;;;;;6236889;28;20067;-74
2022/12/02 01:18:10;;;;;;;20.57;10.80;;;;;;;;;;6238891;28;20430;-74
2022/12/02 01:21:10;;;;;;;22.67;11.47;;;;;;;;;;6239600;28;20028;-74
2022/12/02 01:24:10;;;;;;;20.02;12.95;;;;;;;;;;6238207;28;20024;-74
2022/12/02 01:27:10;;;;;;;23.60;11.40;;;;;;;;;;6236464;28;20379;-74
2022/12/02 01:30:11;;;;;;;22.53;11.60;;;;;;;;;;6237811;28;20327;-74
2022/12/02 01:33:11;;;;;;;18.27;10.37;;;;;;;;;;6238729;28;20018;-74
2022/12/02 01:36:11;;;;;;;20.70;11.15;;;;;;;;;;6237013;28;20022;-74
2022/12/02 01:39:11;;;;;;;22.37;10.27;;;;;;;;;;6233739;28;20025;-74
2022/12/02 01:42:12;;;;;;;22.40;12.55;;;;;;;;;;6234617;28;20026;-74
2022/12/02 01:45:12;;;;;;;19.73;11.20;;;;;;;;;;6237264;28;20502;-74
2022/12/02 01:48:12;;;;;;;25.00;13.40;;;;;;;;;;6238666;28;20129;-74
2022/12/02 01:51:13;;;;;;;30.13;13.90;;;;;;;;;;6233065;28;20025;-74
2022/12/02 01:54:13;;;;;;;25.83;12.37;;;;;;;;;;6232890;28;20024;-74
2022/12/02 01:57:14;;;;;;;30.97;13.33;;;;;;;;;;6227042;28;20129;-74
2022/12/02 02:00:14;;;;;;;23.97;12.60;;;;;;;;;;6231661;28;20076;-74
2022/12/02 02:03:15;;;;;;;24.33;12.13;;;;;;;;;;6231695;28;20009;-74
2022/12/02 02:06:15;;;;;;;27.23;13.27;;;;;;;;;;6229247;28;20097;-74
2022/12/02 02:09:15;;;;;;;24.60;13.80;;;;;;;;;;6218137;28;20017;-74
2022/12/02 02:12:15;;;;;;;28.52;14.00;;;;;;;;;;6231936;28;20025;-73
2022/12/02 02:15:16;;;;;;;28.73;13.90;;;;;;;;;;6228529;28;20108;-75
2022/12/02 02:18:16;;;;;;;27.53;14.80;;;;;;;;;;6232974;28;20006;-74
2022/12/02 02:21:22;;;;;;;35.30;15.83;;;;;;;;;;6232215;28;20143;-74
2022/12/02 02:24:23;;;;;;;31.38;16.27;;;;;;;;;;6234499;28;20017;-74
2022/12/02 02:27:23;;;;;;;30.77;14.50;;;;;;;;;;6229466;28;20020;-74
2022/12/02 02:30:25;;;;;;;22.40;14.17;;;;;;;;;;6233377;28;20346;-74
2022/12/02 02:33:27;;;;;;;27.63;15.00;;;;;;;;;;6235014;28;20028;-74
2022/12/02 02:36:27;;;;;;;25.23;13.40;;;;;;;;;;6240316;28;20394;-74
2022/12/02 02:39:27;;;;;;;28.80;16.40;;;;;;;;;;6223777;28;20414;-74
2022/12/02 02:42:28;;;;;;;28.47;15.23;;;;;;;;;;6224289;28;20021;-74
2022/12/02 02:45:34;;;;;;;26.77;14.27;;;;;;;;;;6243134;28;20020;-74
2022/12/02 02:48:34;;;;;;;31.00;17.23;;;;;;;;;;6232279;28;20493;-74
2022/12/02 02:51:35;;;;;;;35.27;16.33;;;;;;;;;;6234265;28;20018;-74
2022/12/02 02:54:35;;;;;;;34.90;17.50;;;;;;;;;;6233395;28;20485;-75
2022/12/02 02:57:35;;;;;;;29.27;16.83;;;;;;;;;;6230473;28;20416;-74
2022/12/02 03:00:37;;;;;;;31.05;15.73;;;;;;;;;;6220537;28;20073;-74
2022/12/02 03:03:39;;;;;;;25.70;14.27;;;;;;;;;;6223457;28;20662;-75
2022/12/02 03:06:39;;;;;;;;;;;;;;;;;;6231901;28;20549;-75
2022/12/02 03:09:39;;;;;;;28.70;13.73;;;;;;;;;;6226292;28;20369;-75
2022/12/02 03:12:40;;;;;;;29.00;14.47;;;;;;;;;;6229283;28;20478;-75
2022/12/02 03:15:40;;;;;;;26.03;12.53;;;;;;;;;;6232547;28;20017;-75
2022/12/02 03:18:42;;;;;;;26.13;12.60;;;;;;;;;;6231596;28;20703;-76
2022/12/02 03:21:43;;;;;;;27.27;12.82;;;;;;;;;;6225636;28;20529;-76
2022/12/02 03:24:44;;;;;;;28.73;14.13;;;;;;;;;;6235959;28;20024;-76
2022/12/02 03:27:44;;;;;;;26.87;13.43;;;;;;;;;;6231771;28;20024;-78
2022/12/02 03:30:44;;;;;;;27.30;14.30;;;;;;;;;;6233966;28;20044;-77
2022/12/02 03:33:45;;;;;;;25.03;12.90;;;;;;;;;;6230249;28;20019;-77
2022/12/02 03:36:45;;;;;;;25.00;12.47;;;;;;;;;;6241167;28;20404;-78
2022/12/02 03:39:46;;;;;;;25.10;11.30;;;;;;;;;;6222399;28;20607;-77
2022/12/02 03:42:46;;;;;;;25.47;13.73;;;;;;;;;;6222838;28;20045;-77
2022/12/02 03:45:46;;;;;;;26.70;15.23;;;;;;;;;;6221239;28;20393;-79
2022/12/02 03:48:46;;;;;;;19.57;10.87;;;;;;;;;;6221853;28;20117;-77
2022/12/02 03:51:47;;;;;;;25.20;12.70;;;;;;;;;;6223839;28;20021;-78
2022/12/02 03:54:47;;;;;;;28.23;13.87;;;;;;;;;;6237973;28;20022;-78
2022/12/02 03:57:47;;;;;;;21.43;11.77;;;;;;;;;;6223527;28;20034;-78
2022/12/02 04:00:47;;;;;;;28.17;14.03;;;;;;;;;;6225674;28;20052;-76
2022/12/02 04:03:48;;;;;;;21.43;13.00;;;;;;;;;;6227029;28;20022;-77
2022/12/02 04:06:48;;;;;;;24.77;11.57;;;;;;;;;;6245994;28;20032;-76
2022/12/02 04:09:48;;;;;;;23.17;11.93;;;;;;;;;;6240459;28;20388;-79
2022/12/02 04:12:48;;;;;;;20.53;10.57;;;;;;;;;;6242378;28;20486;-77
2022/12/02 04:15:49;;;;;;;21.88;11.13;;;;;;;;;;6241854;28;20025;-76
2022/12/02 04:18:49;;;;;;;17.40;11.03;;;;;;;;;;6242409;28;20075;-76
2022/12/02 04:21:49;;;;;;;17.65;9.32;;;;;;;;;;6228103;28;20071;-77
2022/12/02 04:24:49;;;;;;;20.90;11.48;;;;;;;;;;6222390;28;20944;-76
2022/12/02 04:27:50;;;;;;;16.97;9.40;;;;;;;;;;6230248;28;20033;-76
2022/12/02 04:30:50;;;;;;;19.17;9.33;;;;;;;;;;6230693;28;20025;-76
2022/12/02 04:33:50;;;;;;;17.97;9.03;;;;;;;;;;6239788;28;20029;-75
2022/12/02 04:36:50;;;;;;;17.23;8.77;;;;;;;;;;6239641;28;20013;-75
2022/12/02 04:39:50;;;;;;;21.35;10.90;;;;;;;;;;6241098;28;20462;-75
2022/12/02 04:42:51;;;;;;;21.30;10.27;;;;;;;;;;6234285;28;20060;-75
2022/12/02 04:45:51;;;;;;;21.80;10.73;;;;;;;;;;6239224;28;20104;-76
2022/12/02 04:48:51;;;;;;;23.93;12.57;;;;;;;;;;6239101;28;20325;-75
2022/12/02 04:51:51;;;;;;;15.50;8.23;;;;;;;;;;6234444;28;20276;-75
2022/12/02 04:54:52;;;;;;;16.65;8.85;;;;;;;;;;6236657;28;20135;-75
2022/12/02 04:57:52;;;;;;;17.17;8.63;;;;;;;;;;6240646;28;20045;-76
2022/12/02 05:00:52;;;;;;;16.77;7.33;;;;;;;;;;6237052;28;20075;-75
2022/12/02 05:03:52;;;;;;;14.60;6.85;;;;;;;;;;6236622;28;20017;-76
2022/12/02 05:06:52;;;;;;;12.93;6.40;;;;;;;;;;6243605;28;20385;-76
2022/12/02 05:09:53;;;;;;;12.97;7.97;;;;;;;;;;6239283;28;20045;-78
2022/12/02 05:12:53;;;;;;;14.67;8.27;;;;;;;;;;6239859;28;20025;-77
2022/12/02 05:15:53;;;;;;;11.70;6.50;;;;;;;;;;6257995;28;20017;-77
2022/12/02 05:18:53;;;;;;;15.60;7.40;;;;;;;;;;6240789;28;20458;-77
2022/12/02 05:21:53;;;;;;;15.18;7.05;;;;;;;;;;6259269;28;20013;-77
2022/12/02 05:24:53;;;;;;;15.65;7.35;;;;;;;;;;6239499;28;20013;-78
2022/12/02 05:27:54;;;;;;;14.80;7.03;;;;;;;;;;6244626;28;20740;-77
2022/12/02 05:30:55;;;;;;;14.60;7.80;;;;;;;;;;6242260;28;20021;-77
2022/12/02 05:33:55;;;;;;;14.05;7.60;;;;;;;;;;6240265;28;20131;-77
2022/12/02 05:36:55;;;;;;;11.88;6.85;;;;;;;;;;6254311;28;20033;-77
2022/12/02 05:39:57;;;;;;;12.37;6.73;;;;;;;;;;6240558;28;20377;-77
2022/12/02 05:42:57;;;;;;;;;;;;;;;;;;6237583;28;20028;-77
2022/12/02 05:45:58;;;;;;;14.00;6.82;;;;;;;;;;6231876;28;19960;-77
2022/12/02 05:48:58;;;;;;;15.20;7.80;;;;;;;;;;6236550;28;20022;-76
2022/12/02 05:51:59;;;;;;;14.80;7.13;;;;;;;;;;6252302;28;20443;-76
2022/12/02 05:55:01;;;;;;;12.55;6.45;;;;;;;;;;6239187;28;20032;-76
2022/12/02 05:58:01;;;;;;;17.52;7.47;;;;;;;;;;6239907;28;20176;-76
2022/12/02 06:01:12;;;;;;;13.30;7.00;;;;;;;;;;6237455;28;20464;-76
2022/12/02 06:04:14;;;;;;;16.60;7.30;;;;;;;;;;6239467;28;20021;-76
2022/12/02 06:07:14;;;;;;;14.35;7.75;;;;;;;;;;6234618;28;20025;-76
2022/12/02 06:10:28;;;;;;;15.50;8.05;;;;;;;;;;6236205;28;20362;-76
2022/12/02 06:13:31;;;;;;;18.85;8.05;;;;;;;;;;6237799;28;20082;-76
2022/12/02 06:16:31;;;;;;;19.30;10.00;;;;;;;;;;6235005;28;20475;-77
2022/12/02 06:19:38;;;;;;;15.23;8.17;;;;;;;;;;6234860;28;20056;-78
2022/12/02 06:22:38;;;;;;;14.88;8.93;;;;;;;;;;6231590;28;20021;-76
2022/12/02 06:25:38;;;;;;;15.52;7.25;;;;;;;;;;6233807;28;20478;-77
2022/12/02 06:28:38;;;;;;;18.10;7.00;;;;;;;;;;6236108;28;20017;-77
2022/12/02 06:31:41;;;;;;;18.23;9.03;;;;;;;;;;6237630;28;20036;-77
2022/12/02 06:34:42;;;;;;;13.65;8.48;;;;;;;;;;6235832;28;20465;-76
2022/12/02 06:37:42;;;;;;;13.53;8.27;;;;;;;;;;6233415;28;20029;-76
2022/12/02 06:40:42;;;;;;;15.67;7.63;;;;;;;;;;6230589;28;20017;-77
2022/12/02 06:45:03;;;;;;;16.13;7.30;;;;;;;;;;6222323;28;20041;-76
2022/12/02 06:47:21;;;;;;;17.38;9.10;;;;;;;;;;6227152;28;20029;-76
2022/12/02 06:50:42;;;;;;;18.52;9.10;;;;;;;;;;6236804;28;20028;-76
2022/12/02 06:53:42;;;;;;;18.45;8.80;;;;;;;;;;6229667;28;20042;-76
2022/12/02 06:56:43;;;;;;;20.87;10.80;;;;;;;;;;6230918;28;20406;-76
2022/12/02 06:59:48;;;;;;;18.73;9.60;;;;;;;;;;6248451;28;20030;-76
2022/12/02 07:02:48;;;;;;;23.42;12.63;;;;;;;;;;6238995;28;20084;-76
2022/12/02 07:05:51;;;;;;;21.73;9.60;;;;;;;;;;6225245;28;20638;-77
2022/12/02 07:08:54;;;;;;;26.73;14.13;;;;;;;;;;6227264;28;20079;-76
2022/12/02 07:11:57;;;;;;;19.58;11.40;;;;;;;;;;6225681;28;20584;-75
2022/12/02 07:15:16;;;;;;;23.88;11.07;;;;;;;;;;6226238;28;20025;-76
2022/12/02 07:18:18;;;;;;;22.65;11.88;;;;;;;;;;6232258;28;20025;-77
2022/12/02 07:21:18;;;;;;;24.08;12.60;;;;;;;;;;6228619;28;20482;-77
2022/12/02 07:24:19;;;;;;;27.67;12.55;;;;;;;;;;6233480;28;20024;-77
2022/12/02 07:27:21;;;;;;;19.05;9.98;;;;;;;;;;6235096;28;20105;-77
2022/12/02 07:30:27;;;;;;;24.60;12.25;;;;;;;;;;6233429;28;20033;-76
2022/12/02 07:33:28;;;;;;;23.92;13.02;;;;;;;;;;6233387;28;20133;-76
2022/12/02 07:36:28;;;;;;;23.97;11.63;;;;;;;;;;6237246;28;20408;-77
2022/12/02 07:39:28;;;;;;;22.40;11.90;;;;;;;;;;6235525;28;20026;-77
2022/12/02 07:42:28;;;;;;;24.97;12.60;;;;;;;;;;6234251;28;20021;-77
2022/12/02 07:45:28;;;;;;;25.73;11.37;;;;;;;;;;6239552;28;20029;-77
2022/12/02 07:48:29;;;;;;;21.13;10.90;;;;;;;;;;6227824;28;20040;-77
2022/12/02 07:51:29;;;;;;;27.25;12.48;;;;;;;;;;6232230;28;20033;-77
2022/12/02 07:54:29;;;;;;;25.53;13.57;;;;;;;;;;6241542;28;20381;-77
2022/12/02 07:57:29;;;;;;;24.53;13.00;;;;;;;;;;6245569;28;20069;-77
2022/12/02 08:00:29;;;;;;;25.30;13.07;;;;;;;;;;6239357;28;20036;-77
2022/12/02 08:03:30;;;;;;;26.07;13.40;;;;;;;;;;6230672;28;20525;-78
2022/12/02 08:06:30;;;;;;;27.60;12.73;;;;;;;;;;6234399;28;20064;-77
2022/12/02 08:09:30;;;;;;;24.40;12.30;;;;;;;;;;6236586;28;20071;-78
2022/12/02 08:12:30;;;;;;;24.13;12.73;;;;;;;;;;6245630;28;20223;-77
2022/12/02 08:15:30;;;;;;;20.70;12.18;;;;;;;;;;6240428;28;20265;-78
2022/12/02 08:18:31;;;;;;;23.02;12.18;;;;;;;;;;6234983;28;20036;-77
2022/12/02 08:21:31;;;;;;;21.83;12.57;;;;;;;;;;6234389;28;20654;-77
2022/12/02 08:24:31;;;;;;;23.30;12.73;;;;;;;;;;6234037;28;20105;-77
2022/12/02 08:27:32;;;;;;;22.07;12.27;;;;;;;;;;6231498;28;20026;-77
2022/12/02 08:30:32;;;;;;;18.37;10.17;;;;;;;;;;6228966;28;20033;-77
2022/12/02 08:33:32;;;;;;;18.60;10.30;;;;;;;;;;6232900;28;20024;-77
2022/12/02 08:36:33;;;;;;;21.60;10.67;;;;;;;;;;6236875;28;20124;-78
2022/12/02 08:39:33;;;;;;;20.97;10.37;;;;;;;;;;6236493;28;20444;-78
2022/12/02 08:42:33;;;;;;;18.00;9.60;;;;;;;;;;6234341;28;20039;-78
2022/12/02 08:45:34;;;;;;;17.73;9.37;;;;;;;;;;6230796;28;20045;-78
2022/12/02 08:48:34;;;;;;;14.97;6.60;;;;;;;;;;6240006;28;20396;-78
2022/12/02 08:51:34;;;;;;;15.17;7.33;;;;;;;;;;6238990;28;20052;-77
2022/12/02 08:54:34;;;;;;;16.10;8.03;;;;;;;;;;6225205;28;20026;-78
2022/12/02 08:57:35;;;;;;;17.63;9.47;;;;;;;;;;6233086;28;20107;-78
2022/12/02 09:00:35;;;;;;;18.23;8.70;;;;;;;;;;6235039;28;20406;-78
2022/12/02 09:03:38;;;;;;;16.30;9.57;;;;;;;;;;6230046;28;20021;-78
2022/12/02 09:06:40;;;;;;;18.13;9.48;;;;;;;;;;6230910;28;20377;-78
2022/12/02 09:09:40;;;;;;;15.48;8.20;;;;;;;;;;6233710;28;20028;-78
2022/12/02 09:12:40;;;;;;;19.33;10.10;;;;;;;;;;6229445;28;20049;-78
2022/12/02 09:15:41;;;;;;;16.13;9.60;;;;;;;;;;6242920;28;20063;-79
2022/12/02 09:18:41;;;;;;;22.50;9.57;;;;;;;;;;6240676;28;20005;-78
2022/12/02 09:21:41;;;;;;;18.90;10.43;;;;;;;;;;6238963;28;20048;-78
2022/12/02 09:24:42;;;;;;;22.00;10.53;;;;;;;;;;6239273;28;20041;-78
2022/12/02 09:27:42;;;;;;;18.73;9.13;;;;;;;;;;6239986;28;20086;-80
2022/12/02 09:30:42;;;;;;;17.00;8.73;;;;;;;;;;6255933;28;20083;-78
2022/12/02 09:33:42;;;;;;;23.10;12.87;;;;;;;;;;6238809;28;20075;-78
2022/12/02 09:36:43;;;;;;;21.73;11.67;;;;;;;;;;6240037;28;20071;-78
2022/12/02 09:39:43;;;;;;;20.40;10.23;;;;;;;;;;6237418;28;20038;-79
2022/12/02 09:42:43;;;;;;;19.27;9.50;;;;;;;;;;6241509;28;20037;-78
2022/12/02 09:45:43;;;;;;;21.40;11.87;;;;;;;;;;6237856;28;20025;-78
2022/12/02 09:48:44;;;;;;;24.37;12.13;;;;;;;;;;6229920;28;20029;-79
2022/12/02 09:51:44;;;;;;;24.03;12.87;;;;;;;;;;6240388;28;20025;-78
2022/12/02 09:54:45;;;;;;;23.17;11.53;;;;;;;;;;6238350;28;20238;-79
2022/12/02 09:57:45;;;;;;;20.37;10.43;;;;;;;;;;6227416;28;20099;-78
2022/12/02 10:00:46;;;;;;;18.87;8.83;;;;;;;;;;6219936;28;20276;-78
2022/12/02 10:03:48;;;;;;;22.80;10.63;;;;;;;;;;6231319;28;20021;-79
2022/12/02 10:06:48;;;;;;;25.05;12.05;;;;;;;;;;6229613;28;20033;-78
2022/12/02 10:09:48;;;;;;;22.93;11.80;;;;;;;;;;6225462;28;20732;-78
2022/12/02 10:12:49;;;;;;;21.57;12.33;;;;;;;;;;6240182;28;20059;-78
2022/12/02 10:15:49;;;;;;;20.33;10.90;;;;;;;;;;6232386;28;20108;-78
2022/12/02 10:18:50;;;;;;;23.47;10.80;;;;;;;;;;6230500;28;20017;-78
2022/12/02 10:21:50;;;;;;;26.77;13.20;;;;;;;;;;6227266;28;20029;-78
2022/12/02 10:24:50;;;;;;;26.20;11.50;;;;;;;;;;6231030;28;20025;-78
2022/12/02 10:27:50;;;;;;;27.37;13.50;;;;;;;;;;6243125;28;20037;-78
2022/12/02 10:30:52;;;;;;;21.47;12.17;;;;;;;;;;6230763;28;20028;-78
2022/12/02 10:33:52;;;;;;;;;;;;;;;;;;6227435;28;20059;-77
2022/12/02 10:36:53;;;;;;;23.08;12.50;;;;;;;;;;6223517;28;19912;-78
2022/12/02 10:40:06;;;;;;;19.00;10.63;;;;;;;;;;6227101;28;20021;-78
2022/12/02 10:43:10;;;;;;;21.67;11.35;;;;;;;;;;6235445;28;20113;-79
2022/12/02 10:46:12;;;;;;;24.52;11.93;;;;;;;;;;6227807;28;20021;-78
2022/12/02 10:49:23;;;;;;;27.02;12.50;;;;;;;;;;6232175;28;20044;-78
2022/12/02 10:52:26;;;;;;;28.13;13.43;;;;;;;;;;6237062;28;20079;-77
2022/12/02 10:55:26;;;;;;;25.17;12.55;;;;;;;;;;6232541;28;20483;-77
2022/12/02 10:58:29;;;;;;;24.03;12.20;;;;;;;;;;6228462;28;20071;-77
2022/12/02 11:01:29;;;;;;;25.38;12.48;;;;;;;;;;6227324;28;20314;-77
2022/12/02 11:04:30;;;;;;;21.27;13.05;;;;;;;;;;6236473;28;20029;-77
2022/12/02 11:07:30;;;;;;;22.40;11.10;;;;;;;;;;6236032;28;20018;-78
2022/12/02 11:10:40;;;;;;;27.30;12.93;;;;;;;;;;6222866;28;20026;-78
2022/12/02 11:13:53;;;;;;;24.08;11.57;;;;;;;;;;6230057;28;20089;-78
2022/12/02 11:17:04;;;;;;;17.92;9.98;;;;;;;;;;6216295;28;20036;-79
2022/12/02 11:20:42;;;;;;;24.42;11.50;;;;;;;;;;6233592;28;20549;-79
2022/12/02 11:23:43;;;;;;;20.60;10.95;;;;;;;;;;6232663;28;20587;-78
2022/12/02 11:26:58;;;;;;;23.55;11.52;;;;;;;;;;6225107;28;20045;-78
2022/12/02 11:30:05;;;;;;;20.92;10.82;;;;;;;;;;6229505;28;20269;-78
2022/12/02 11:33:09;;;;;;;20.02;11.07;;;;;;;;;;6228529;28;20355;-79
2022/12/02 11:36:22;;;;;;;25.92;11.02;;;;;;;;;;6236319;28;20539;-78
2022/12/02 11:39:39;;;;;;;20.40;10.25;;;;;;;;;;6237462;28;20037;-78
2022/12/02 11:42:40;;;;;;;20.45;11.98;;;;;;;;;;6233255;28;20017;-77
2022/12/02 11:45:40;;;;;;;21.60;11.65;;;;;;;;;;6229347;28;20443;-77
2022/12/02 11:48:48;;;;;;;26.90;10.93;;;;;;;;;;6229275;28;20029;-79
2022/12/02 11:51:49;;;;;;;23.10;12.48;;;;;;;;;;6223828;28;20041;-77
2022/12/02 11:54:58;;;;;;;19.10;10.10;;;;;;;;;;6225849;28;20017;-78
2022/12/02 11:57:59;;;;;;;25.02;13.25;;;;;;;;;;6234010;28;20049;-78
2022/12/02 12:01:11;;;;;;;22.37;13.50;;;;;;;;;;6226039;28;20018;-78
2022/12/02 12:04:21;;;;;;;26.17;12.50;;;;;;;;;;6221020;28;20049;-77
2022/12/02 12:07:22;;;;;;;24.92;12.20;;;;;;;;;;6224805;28;20424;-77
2022/12/02 12:10:25;;;;;;;24.27;11.20;;;;;;;;;;6238399;28;20017;-78
2022/12/02 12:13:26;;;;;;;23.73;12.38;;;;;;;;;;6236608;28;20079;-77
2022/12/02 12:16:27;;;;;;;24.80;12.70;;;;;;;;;;6221852;28;20060;-78
2022/12/02 12:19:27;;;;;;;24.15;11.88;;;;;;;;;;6219218;28;20033;-78
2022/12/02 12:22:29;;;;;;;22.10;12.10;;;;;;;;;;6230668;28;20029;-77
2022/12/02 12:25:31;;;;;;;25.73;12.95;;;;;;;;;;6226765;28;20363;-77
2022/12/02 12:28:33;;;;;;;24.15;12.20;;;;;;;;;;6227546;28;20017;-77
2022/12/02 12:31:33;;;;;;;25.45;12.65;;;;;;;;;;6234408;28;20090;-77
2022/12/02 12:34:33;;;;;;;23.37;12.90;;;;;;;;;;6241252;28;20021;-77
2022/12/02 12:37:33;;;;;;;22.50;12.90;;;;;;;;;;6233659;28;20060;-78
2022/12/02 12:40:34;;;;;;;24.13;13.00;;;;;;;;;;6234413;28;20596;-78
2022/12/02 12:43:34;;;;;;;22.73;12.03;;;;;;;;;;6238539;28;20024;-79
2022/12/02 12:46:34;;;;;;;25.27;11.37;;;;;;;;;;6235339;28;20010;-78
2022/12/02 12:49:34;;;;;;;25.83;11.40;;;;;;;;;;6237203;28;20022;-78
2022/12/02 12:52:34;;;;;;;23.47;11.73;;;;;;;;;;6236928;28;20603;-79
2022/12/02 12:55:35;;;;;;;22.47;12.90;;;;;;;;;;6242523;28;20358;-78
2022/12/02 12:58:35;;;;;;;28.27;12.60;;;;;;;;;;6238477;28;20042;-78
2022/12/02 13:01:36;;;;;;;23.63;13.40;;;;;;;;;;6229862;28;20005;-78
2022/12/02 13:04:36;;;;;;;19.92;11.85;;;;;;;;;;6244832;28;20020;-78
2022/12/02 13:07:36;;;;;;;23.38;12.63;;;;;;;;;;6233165;28;20616;-79
2022/12/02 13:10:38;;;;;;;23.47;12.33;;;;;;;;;;6240935;28;20053;-78
2022/12/02 13:13:38;;;;;;;25.20;11.80;;;;;;;;;;6241620;28;20037;-79
2022/12/02 13:16:38;;;;;;;25.20;13.00;;;;;;;;;;6248122;28;20035;-78
2022/12/02 13:19:38;;;;;;;29.70;14.27;;;;;;;;;;6243322;28;20025;-78
2022/12/02 13:22:39;;;;;;;23.87;14.07;;;;;;;;;;6242235;28;20417;-78
2022/12/02 13:25:39;;;;;;;26.43;12.97;;;;;;;;;;6241312;28;20017;-79
2022/12/02 13:28:40;;;;;;;26.57;12.20;;;;;;;;;;6227578;28;20029;-78
2022/12/02 13:31:40;;;;;;;29.98;14.48;;;;;;;;;;6232066;28;20057;-78
2022/12/02 13:34:40;;;;;;;23.70;12.23;;;;;;;;;;6237626;28;20385;-78
2022/12/02 13:37:41;;;;;;;26.07;12.90;;;;;;;;;;6226751;28;20022;-79
2022/12/02 13:40:41;;;;;;;30.07;13.97;;;;;;;;;;6229826;28;20056;-80
2022/12/02 13:43:41;;;;;;;29.37;13.03;;;;;;;;;;6232461;28;20017;-79
2022/12/02 13:46:41;;;;;;;24.10;13.73;;;;;;;;;;6232567;28;20013;-78
2022/12/02 13:49:41;;;;;;;29.75;14.27;;;;;;;;;;6250818;28;20112;-78
2022/12/02 13:52:42;;;;;;;29.53;15.13;;;;;;;;;;6236999;28;20014;-78
2022/12/02 13:55:42;;;;;;;29.10;13.33;;;;;;;;;;6236139;28;20021;-78
2022/12/02 13:58:42;;;;;;;31.13;15.03;;;;;;;;;;6224655;28;20421;-79
2022/12/02 14:01:42;;;;;;;33.10;14.73;;;;;;;;;;6234039;28;20020;-79
2022/12/02 14:04:42;;;;;;;32.53;15.57;;;;;;;;;;6235612;28;20009;-78
2022/12/02 14:07:43;;;;;;;32.03;14.93;;;;;;;;;;6231069;28;20018;-79
2022/12/02 14:10:43;;;;;;;28.37;14.63;;;;;;;;;;6224751;28;20482;-78
2022/12/02 14:13:43;;;;;;;27.60;14.80;;;;;;;;;;6208190;28;20037;-78
2022/12/02 14:16:45;;;;;;;24.53;13.47;;;;;;;;;;6238117;28;20021;-77
2022/12/02 14:19:45;;;;;;;31.90;15.55;;;;;;;;;;6236048;28;20021;-77
2022/12/02 14:22:45;;;;;;;29.23;14.53;;;;;;;;;;6235557;28;20024;-78
2022/12/02 14:25:46;;;;;;;29.33;14.17;;;;;;;;;;6233777;28;20428;-78
2022/12/02 14:28:46;;;;;;;24.00;13.50;;;;;;;;;;6224884;28;20083;-78
2022/12/02 14:31:46;;;;;;;25.40;13.17;;;;;;;;;;6231383;28;20029;-78
2022/12/02 14:34:47;;;;;;;23.00;12.67;;;;;;;;;;6238693;28;20029;-78
2022/12/02 14:37:47;;;;;;;28.73;13.97;;;;;;;;;;6236838;28;20021;-79
2022/12/02 14:40:47;;;;;;;28.90;14.43;;;;;;;;;;6234221;28;20264;-78
2022/12/02 14:43:47;;;;;;;27.98;13.60;;;;;;;;;;6239580;28;20018;-78
2022/12/02 14:46:47;;;;;;;29.27;14.80;;;;;;;;;;6231221;28;20033;-78
2022/12/02 14:49:48;;;;;;;26.87;13.57;;;;;;;;;;6224074;28;20120;-79
2022/12/02 14:52:48;;;;;;;26.50;12.30;;;;;;;;;;6225418;28;20113;-78
2022/12/02 14:55:48;;;;;;;27.25;13.63;;;;;;;;;;6231519;28;20064;-78
2022/12/02 14:58:49;;;;;;;32.60;14.43;;;;;;;;;;6224758;28;20497;-78
2022/12/02 15:01:49;;;;;;;35.73;16.93;;;;;;;;;;6224666;28;20010;-78
2022/12/02 15:04:49;;;;;;;30.27;15.27;;;;;;;;;;6235160;28;20437;-79
2022/12/02 15:07:49;;;;;;;32.97;16.67;;;;;;;;;;6232280;28;20025;-80
2022/12/02 15:10:50;;;;;;;30.60;15.33;;;;;;;;;;6233175;28;20422;-79
2022/12/02 15:13:50;;;;;;;34.70;20.10;;;;;;;;;;6234577;28;20107;-79
2022/12/02 15:16:50;;;;;;;40.28;19.38;;;;;;;;;;6236861;28;20029;-79
2022/12/02 15:19:51;;;;;;;32.85;15.32;;;;;;;;;;6223652;28;20281;-79
2022/12/02 15:22:51;;;;;;;39.45;18.80;;;;;;;;;;6218272;28;20026;-77
2022/12/02 15:25:52;;;;;;;35.43;16.63;;;;;;;;;;6233525;28;20060;-77
2022/12/02 15:28:52;;;;;;;33.47;16.53;;;;;;;;;;6235494;28;20025;-77
2022/12/02 15:31:52;;;;;;;33.27;16.40;;;;;;;;;;6233449;28;20053;-78
2022/12/02 15:34:52;;;;;;;31.60;15.87;;;;;;;;;;6232227;28;20050;-78
2022/12/02 15:37:52;;;;;;;34.95;17.38;;;;;;;;;;6237295;28;20418;-78
2022/12/02 15:40:52;;;;;;;32.73;15.80;;;;;;;;;;6227385;28;20028;-77
2022/12/02 15:43:53;;;;;;;33.37;16.70;;;;;;;;;;6228479;28;20021;-78
2022/12/02 15:46:53;;;;;;;29.93;15.03;;;;;;;;;;6240700;28;20017;-78
2022/12/02 15:49:53;;;;;;;30.70;14.97;;;;;;;;;;6221928;28;20022;-78
2022/12/02 15:52:54;;;;;;;26.97;15.23;;;;;;;;;;6229981;28;20010;-77
2022/12/02 15:55:54;;;;;;;33.63;15.70;;;;;;;;;;6225844;28;20120;-77
2022/12/02 15:58:54;;;;;;;30.20;14.87;;;;;;;;;;6231009;28;20024;-78
2022/12/02 16:01:54;;;;;;;28.00;15.45;;;;;;;;;;6238644;28;20021;-78
2022/12/02 16:04:54;;;;;;;31.53;16.63;;;;;;;;;;6235131;28;20077;-78
2022/12/02 16:07:55;;;;;;;33.47;17.33;;;;;;;;;;6236406;28;20355;-78
2022/12/02 16:10:55;;;;;;;35.88;17.77;;;;;;;;;;6229431;28;20211;-78
2022/12/02 16:13:55;;;;;;;37.33;19.50;;;;;;;;;;6223992;28;20345;-78
2022/12/02 16:16:56;;;;;;;35.30;17.40;;;;;;;;;;6230241;28;20294;-78
2022/12/02 16:19:56;;;;;;;34.60;15.97;;;;;;;;;;6232158;28;20018;-78
2022/12/02 16:22:56;;;;;;;38.57;18.17;;;;;;;;;;6227223;28;20068;-78
2022/12/02 16:25:56;;;;;;;35.87;17.83;;;;;;;;;;6226482;28;20021;-77
2022/12/02 16:28:57;;;;;;;32.73;15.87;;;;;;;;;;6230487;28;20310;-78
2022/12/02 16:31:57;;;;;;;42.93;16.37;;;;;;;;;;6227172;28;20013;-78
2022/12/02 16:34:58;;;;;;;33.28;16.48;;;;;;;;;;6233747;28;20041;-78
2022/12/02 16:37:59;;;;;;;34.97;15.60;;;;;;;;;;6235816;28;20286;-77
2022/12/02 16:40:59;;;;;;;29.77;15.27;;;;;;;;;;6235745;28;20767;-79
2022/12/02 16:43:59;;;;;;;34.45;15.43;;;;;;;;;;6239267;28;20067;-79
2022/12/02 16:46:59;;;;;;;27.73;15.50;;;;;;;;;;6244737;28;20021;-78
2022/12/02 16:49:59;;;;;;;19.23;10.30;;;;;;;;;;6234659;28;20108;-78
2022/12/02 16:53:00;;;;;;;38.70;16.77;;;;;;;;;;6238123;28;20020;-77
2022/12/02 16:56:00;;;;;;;43.97;19.43;;;;;;;;;;6232139;28;20020;-78
2022/12/02 16:59:00;;;;;;;34.37;15.87;;;;;;;;;;6234375;28;20401;-77
2022/12/02 17:02:00;;;;;;;33.27;16.10;;;;;;;;;;6225139;28;20022;-77
2022/12/02 17:05:01;;;;;;;34.37;15.77;;;;;;;;;;6223376;28;20104;-78
2022/12/02 17:08:01;;;;;;;28.17;13.90;;;;;;;;;;6225903;28;20028;-78
2022/12/02 17:11:01;;;;;;;35.47;17.63;;;;;;;;;;6242385;28;20052;-77
2022/12/02 17:14:02;;;;;;;35.70;17.77;;;;;;;;;;6221897;28;20060;-77
2022/12/02 17:17:02;;;;;;;34.07;16.07;;;;;;;;;;6226830;28;20037;-78
2022/12/02 17:20:02;;;;;;;33.93;15.63;;;;;;;;;;6230366;28;20022;-78
2022/12/02 17:23:03;;;;;;;29.87;16.03;;;;;;;;;;6232833;28;20033;-79
2022/12/02 17:26:03;;;;;;;36.27;17.13;;;;;;;;;;6235142;28;20044;-79
2022/12/02 17:29:03;;;;;;;36.27;16.83;;;;;;;;;;6232493;28;20464;-78
2022/12/02 17:32:03;;;;;;;33.87;16.87;;;;;;;;;;6227432;28;20029;-78
2022/12/02 17:35:05;;;;;;;37.50;18.30;;;;;;;;;;6234881;28;20056;-78
2022/12/02 17:38:05;;;;;;;36.92;17.50;;;;;;;;;;6235454;28;20148;-78
2022/12/02 17:41:11;;;;;;;28.60;13.40;;;;;;;;;;6233432;28;20029;-77
2022/12/02 17:44:12;;;;;;;41.70;20.38;;;;;;;;;;6229822;28;20091;-78